Time;durP1;ratioP1;P1;durP2;ratioP2;P2;SDS_P1;SDS_P2;PMS_P1;PMS_P2;Temp;Humidity;BMP_temperature;BMP_pressure;BME280_temperature;BME280_humidity;BME280_pressure;Samples;Min_cycle;Max_cycle;Signal;HPM_P1;HPM_P2
2022/01/20 00:05:56;;;;;;;58.90;26.60;;;;;;;2.07;62.02;98793.86;221577;1276;139558;-60
2022/01/20 00:26:43;;;;;;;47.30;20.90;;;;;;;2.26;62.60;98801.84;221430;1276;138812;-60
2022/01/20 00:32:03;;;;;;;43.50;21.20;;;;;;;2.33;62.44;98803.53;221165;1276;140597;-60
2022/01/20 00:37:16;;;;;;;47.70;21.50;;;;;;;2.37;62.34;98805.83;221298;1276;139053;-58
2022/01/20 00:42:20;;;;;;;43.80;19.50;;;;;;;2.36;62.13;98800.27;221399;1274;138868;-59
2022/01/20 00:47:23;;;;;;;42.40;18.60;;;;;;;2.31;62.41;98805.49;221447;1276;138898;-60
2022/01/20 00:52:26;;;;;;;33.10;16.20;;;;;;;2.38;62.60;98793.90;221427;1275;139800;-59
2022/01/20 00:57:29;;;;;;;17.50;10.50;;;;;;;2.48;62.85;98777.80;221214;1276;138796;-59
2022/01/20 01:02:33;;;;;;;19.60;9.50;;;;;;;2.60;62.84;98772.68;221310;1276;139327;-59
2022/01/20 01:07:48;;;;;;;13.60;7.90;;;;;;;2.75;63.10;98764.30;221252;1276;138932;-60
2022/01/20 01:13:00;;;;;;;14.10;6.50;;;;;;;2.93;63.24;98741.06;221180;1276;139057;-62
2022/01/20 01:23:41;;;;;;;9.00;6.00;;;;;;;3.20;63.05;98718.17;221230;1277;138945;-59
2022/01/20 01:28:45;;;;;;;10.40;6.00;;;;;;;3.26;62.94;98715.98;221180;1276;139411;-60
2022/01/20 01:33:54;;;;;;;8.90;6.40;;;;;;;3.33;63.20;98715.04;220853;1276;139249;-59
2022/01/20 01:38:57;;;;;;;10.60;6.90;;;;;;;3.37;62.96;98710.35;221260;1276;139730;-60
2022/01/20 01:44:07;;;;;;;12.40;7.40;;;;;;;3.38;62.83;98699.23;221352;1276;138770;-61
2022/01/20 01:49:11;;;;;;;9.10;6.20;;;;;;;3.40;63.04;98693.23;221363;1277;139984;-60
2022/01/20 01:54:16;;;;;;;9.50;6.30;;;;;;;3.38;63.15;98683.43;221212;1276;139005;-60
2022/01/20 01:59:19;;;;;;;10.70;7.00;;;;;;;3.43;63.40;98681.70;221413;1276;140524;-59
2022/01/20 02:04:29;;;;;;;10.20;7.20;;;;;;;3.45;63.24;98663.91;221118;1276;139208;-62
2022/01/20 02:20:30;;;;;;;9.70;6.50;;;;;;;3.49;63.42;98629.72;221079;1276;140086;-60
2022/01/20 02:25:37;;;;;;;;;;;;;;;3.49;63.50;98626.72;221277;1277;138807;-60
2022/01/20 02:30:44;;;;;;;10.10;6.60;;;;;;;3.51;63.43;98625.25;221443;1276;124888;-61
2022/01/20 02:35:54;;;;;;;9.10;6.40;;;;;;;3.55;63.30;98614.05;221285;1276;141668;-61
2022/01/20 02:46:25;;;;;;;8.20;5.10;;;;;;;3.73;63.17;98609.09;221111;1276;139122;-58
2022/01/20 02:51:28;;;;;;;7.20;4.40;;;;;;;3.82;63.14;98605.75;221156;1276;138958;-61
2022/01/20 02:56:32;;;;;;;6.70;4.70;;;;;;;3.91;63.01;98607.13;221190;1276;138789;-61
2022/01/20 03:01:35;;;;;;;7.40;4.90;;;;;;;3.95;62.99;98595.40;221263;1276;140013;-58
2022/01/20 03:06:38;;;;;;;7.80;4.90;;;;;;;3.97;62.50;98589.30;221229;1276;138762;-59
2022/01/20 03:11:42;;;;;;;7.00;4.70;;;;;;;4.02;62.63;98574.86;221272;1276;140367;-60
2022/01/20 03:16:47;;;;;;;8.30;5.40;;;;;;;4.06;62.53;98580.01;221152;1275;138673;-61
2022/01/20 03:21:51;;;;;;;9.50;4.80;;;;;;;4.04;62.13;98573.74;221362;1276;139215;-60
2022/01/20 03:26:54;;;;;;;7.20;4.90;;;;;;;4.04;62.14;98572.50;221396;1276;138918;-62
2022/01/20 03:31:57;;;;;;;7.40;5.50;;;;;;;4.04;62.16;98566.38;221269;1277;138374;-59
2022/01/20 03:37:03;;;;;;;8.30;5.40;;;;;;;4.02;62.10;98559.95;221319;1276;138539;-60
2022/01/20 03:42:27;;;;;;;8.50;5.40;;;;;;;3.96;62.23;98552.34;221200;1276;138369;-60
2022/01/20 03:47:30;;;;;;;11.00;6.10;;;;;;;3.91;62.51;98553.59;221424;1276;138355;-60
2022/01/20 03:52:35;;;;;;;8.60;5.60;;;;;;;3.85;62.76;98549.13;221140;1277;139223;-61
2022/01/20 03:57:38;;;;;;;8.20;4.90;;;;;;;3.82;63.12;98543.65;221052;1276;139088;-61
2022/01/20 04:02:59;;;;;;;11.70;6.60;;;;;;;3.79;63.18;98543.41;221085;1276;138795;-61
2022/01/20 04:08:18;;;;;;;9.70;6.30;;;;;;;3.78;63.41;98534.68;220943;1276;177195;-59
2022/01/20 04:13:22;;;;;;;9.60;5.90;;;;;;;3.78;63.16;98528.55;221214;1276;138706;-61
2022/01/20 04:18:27;;;;;;;8.80;6.20;;;;;;;3.73;63.46;98519.97;221344;1276;138788;-59
2022/01/20 04:23:30;;;;;;;7.70;6.00;;;;;;;3.76;63.32;98520.02;221458;1276;138670;-60
2022/01/20 04:28:33;;;;;;;9.10;5.50;;;;;;;3.78;63.39;98510.29;221119;1276;138482;-61
2022/01/20 04:33:36;;;;;;;8.70;5.30;;;;;;;3.84;63.54;98505.32;220848;1277;138972;-58
2022/01/20 04:38:39;;;;;;;8.70;5.40;;;;;;;3.92;63.17;98503.05;221296;1276;139141;-59
2022/01/20 04:43:42;;;;;;;9.20;5.40;;;;;;;3.93;63.14;98496.98;221257;1277;139998;-60
2022/01/20 04:49:03;;;;;;;9.90;5.20;;;;;;;3.97;63.20;98497.36;221103;1276;138819;-61
2022/01/20 04:59:28;;;;;;;8.20;5.20;;;;;;;3.96;63.22;98484.95;221244;1276;139307;-61
2022/01/20 05:04:31;;;;;;;9.50;5.50;;;;;;;3.93;63.35;98478.95;221377;1275;138915;-60
2022/01/20 05:09:38;;;;;;;8.50;5.60;;;;;;;3.90;63.48;98471.51;221320;1275;138536;-61
2022/01/20 05:14:41;;;;;;;7.80;5.10;;;;;;;3.90;63.62;98468.17;221338;1275;138370;-61
2022/01/20 05:19:44;;;;;;;10.90;5.20;;;;;;;3.90;63.44;98475.71;221406;1276;139713;-61
2022/01/20 05:24:47;;;;;;;7.00;5.00;;;;;;;3.92;63.77;98472.65;221306;1276;138957;-61
2022/01/20 05:29:50;;;;;;;8.40;5.30;;;;;;;3.96;63.74;98472.13;221383;1276;138666;-59
2022/01/20 05:34:54;;;;;;;8.60;5.80;;;;;;;3.92;63.87;98460.56;221018;1276;140326;-60
2022/01/20 05:39:58;;;;;;;9.00;5.80;;;;;;;3.92;63.92;98462.98;220989;1277;138777;-61
2022/01/20 05:45:05;;;;;;;8.60;5.80;;;;;;;3.92;63.87;98452.48;221383;1276;138638;-61
2022/01/20 05:50:13;;;;;;;8.20;5.40;;;;;;;3.94;63.97;98442.55;221191;1276;138269;-61
2022/01/20 05:55:19;;;;;;;7.10;5.50;;;;;;;3.99;64.04;98448.45;221281;1276;139283;-60
2022/01/20 06:00:24;;;;;;;9.50;5.70;;;;;;;4.04;63.81;98445.64;221439;1276;138381;-61
2022/01/20 06:05:33;;;;;;;7.30;5.00;;;;;;;4.06;63.76;98439.95;221121;1276;139311;-60
2022/01/20 06:10:37;;;;;;;9.30;5.60;;;;;;;4.08;64.07;98434.91;221330;1276;139051;-60
2022/01/20 06:15:47;;;;;;;10.20;5.20;;;;;;;4.10;63.64;98439.58;221335;1277;138782;-59
2022/01/20 06:20:51;;;;;;;8.70;5.20;;;;;;;4.09;63.82;98439.44;221112;1277;139492;-59
2022/01/20 06:25:56;;;;;;;9.00;5.10;;;;;;;4.11;64.01;98442.52;221124;1277;138903;-62
2022/01/20 06:31:00;;;;;;;7.00;4.80;;;;;;;4.08;63.63;98435.09;221217;1277;139349;-60
2022/01/20 06:36:05;;;;;;;8.70;5.10;;;;;;;4.10;63.81;98426.75;221318;1276;139210;-61
2022/01/20 06:41:08;;;;;;;8.30;4.50;;;;;;;4.14;63.71;98421.11;221213;1277;138888;-59
2022/01/20 06:46:11;;;;;;;9.70;4.90;;;;;;;4.18;63.63;98413.95;221371;1277;139319;-59
2022/01/20 06:51:30;;;;;;;6.60;4.90;;;;;;;4.19;63.70;98405.46;221308;1277;138883;-61
2022/01/20 06:56:33;;;;;;;6.90;4.70;;;;;;;4.19;63.71;98393.85;221306;1277;138723;-62
2022/01/20 07:01:46;;;;;;;8.10;5.20;;;;;;;4.19;63.70;98399.29;221260;1276;139189;-62
2022/01/20 07:06:56;;;;;;;8.10;5.00;;;;;;;4.18;63.82;98400.95;221278;1276;140862;-62
2022/01/20 07:12:26;;;;;;;9.90;5.50;;;;;;;4.19;63.81;98408.77;221375;1276;139291;-62
2022/01/20 07:17:29;;;;;;;7.60;5.30;;;;;;;4.23;63.92;98405.23;221178;1277;140126;-61
2022/01/20 07:22:32;;;;;;;9.10;5.10;;;;;;;4.31;63.96;98403.82;221171;1277;138618;-60
2022/01/20 07:27:37;;;;;;;9.80;5.60;;;;;;;4.37;63.93;98405.66;221383;1277;139505;-61
2022/01/20 07:33:03;;;;;;;9.40;5.20;;;;;;;4.33;63.60;98397.92;221229;1276;138762;-62
2022/01/20 07:38:09;;;;;;;9.60;5.70;;;;;;;4.32;63.59;98403.24;221137;1276;138891;-62
2022/01/20 07:43:12;;;;;;;10.30;5.70;;;;;;;4.33;63.54;98407.05;221310;1276;139679;-60
2022/01/20 07:48:21;;;;;;;6.70;5.00;;;;;;;4.33;63.64;98407.10;221512;1274;140796;-62
2022/01/20 07:53:29;;;;;;;8.90;5.80;;;;;;;4.33;63.67;98416.91;220766;1278;138803;-60
2022/01/20 07:58:33;;;;;;;11.10;6.70;;;;;;;4.31;63.76;98435.24;220673;1279;138933;-61
2022/01/20 08:03:37;;;;;;;10.00;5.60;;;;;;;4.29;63.97;98444.30;221433;1277;139351;-58
2022/01/20 08:08:43;;;;;;;4.80;2.90;;;;;;;4.11;63.93;98447.76;221216;1277;141324;-62
2022/01/20 08:14:08;;;;;;;4.10;2.40;;;;;;;3.76;63.94;98464.21;221292;1276;139421;-61
2022/01/20 08:19:12;;;;;;;2.70;1.70;;;;;;;3.49;64.57;98477.66;221192;1276;139227;-61
2022/01/20 08:24:15;;;;;;;4.70;2.20;;;;;;;3.40;65.11;98470.70;221459;1276;138711;-62
2022/01/20 08:29:19;;;;;;;5.00;2.70;;;;;;;3.31;65.57;98464.25;221300;1277;139458;-59
2022/01/20 08:34:22;;;;;;;4.70;3.10;;;;;;;3.21;65.67;98463.23;220915;1276;138870;-62
2022/01/20 08:39:48;;;;;;;4.90;3.10;;;;;;;3.19;65.94;98450.89;221246;1276;139810;-60
2022/01/20 08:44:53;;;;;;;7.00;3.30;;;;;;;3.23;66.33;98441.94;220854;1277;139331;-61
2022/01/20 08:49:56;;;;;;;8.10;4.40;;;;;;;3.30;66.42;98446.39;221274;1275;138798;-61
2022/01/20 08:54:59;;;;;;;12.50;5.00;;;;;;;3.31;66.41;98438.98;221419;1277;140091;-61
2022/01/20 09:00:41;;;;;;;8.70;5.40;;;;;;;3.30;66.43;98443.97;221166;1277;139175;-61
2022/01/20 09:05:44;;;;;;;6.80;4.30;;;;;;;3.27;66.49;98443.39;221287;1276;138595;-61
2022/01/20 09:10:55;;;;;;;9.60;4.40;;;;;;;3.22;66.63;98428.33;221187;1274;138920;-61
2022/01/20 09:16:00;;;;;;;7.40;4.60;;;;;;;3.22;66.76;98428.67;221318;1276;139805;-62
2022/01/20 09:21:10;;;;;;;13.10;6.10;;;;;;;3.25;66.93;98421.53;221323;1276;140965;-60
2022/01/20 09:26:14;;;;;;;9.40;6.30;;;;;;;3.32;67.00;98417.57;220914;1276;138724;-61
2022/01/20 09:31:25;;;;;;;10.50;6.00;;;;;;;3.35;66.98;98400.08;221143;1276;138858;-61
2022/01/20 09:36:28;;;;;;;12.10;6.70;;;;;;;3.38;66.95;98383.30;221404;1276;139143;-61
2022/01/20 09:41:31;;;;;;;10.10;5.40;;;;;;;3.48;67.23;98370.73;221317;1276;139628;-61
2022/01/20 09:46:35;;;;;;;16.50;7.20;;;;;;;3.62;67.20;98359.29;221373;1276;139261;-61
2022/01/20 09:51:46;;;;;;;12.00;7.50;;;;;;;3.74;67.46;98364.66;221132;1276;138917;-61
2022/01/20 09:56:53;;;;;;;14.10;6.90;;;;;;;3.83;67.26;98343.59;221376;1277;139429;-62
2022/01/20 10:01:58;;;;;;;11.00;5.60;;;;;;;3.96;67.21;98342.81;221106;1276;139593;-59
2022/01/20 10:07:09;;;;;;;11.00;6.10;;;;;;;4.10;66.94;98338.30;221317;1276;139401;-61
2022/01/20 10:12:19;;;;;;;9.40;5.90;;;;;;;4.21;66.74;98319.86;221206;1276;139185;-61
2022/01/20 10:18:24;;;;;;;10.70;5.40;;;;;;;4.30;66.66;98308.20;220774;1277;138976;-62
2022/01/20 10:23:39;;;;;;;7.60;4.80;;;;;;;4.46;66.55;98287.23;221038;1276;138969;-61
2022/01/20 10:29:14;;;;;;;8.90;4.90;;;;;;;4.62;66.57;98270.79;221230;1276;138854;-60
2022/01/20 10:34:30;;;;;;;9.50;5.10;;;;;;;4.71;66.05;98260.98;221155;1276;138798;-59
2022/01/20 10:39:47;;;;;;;9.50;4.90;;;;;;;4.68;66.09;98264.30;221252;1276;138438;-60
2022/01/20 10:44:57;;;;;;;9.50;4.60;;;;;;;4.61;65.61;98261.34;221100;1276;138810;-59
2022/01/20 10:50:11;;;;;;;9.40;4.20;;;;;;;4.52;65.69;98245.64;221190;1276;139666;-61
2022/01/20 10:55:25;;;;;;;9.50;4.00;;;;;;;4.42;65.47;98224.88;221139;1277;139678;-61
2022/01/20 11:00:49;;;;;;;8.90;4.40;;;;;;;4.36;64.78;98214.64;221167;1276;138857;-60
2022/01/20 11:05:56;;;;;;;8.70;3.10;;;;;;;4.29;64.79;98178.31;221299;1275;139445;-60
2022/01/20 11:11:21;;;;;;;;;;;;;;;4.24;64.73;98173.62;221216;1276;139958;-61
2022/01/20 11:16:28;;;;;;;8.10;3.30;;;;;;;4.19;64.05;98164.22;221444;1276;126004;-61
2022/01/20 11:21:32;;;;;;;7.70;2.80;;;;;;;4.16;64.03;98164.36;221410;1276;139056;-61
2022/01/20 11:26:35;;;;;;;6.60;2.50;;;;;;;4.15;63.73;98152.65;221205;1276;139444;-60
2022/01/20 11:32:22;;;;;;;9.50;2.60;;;;;;;4.13;63.16;98177.35;221229;1276;139914;-61
2022/01/20 11:37:40;;;;;;;5.30;2.00;;;;;;;4.05;63.21;98203.88;221218;1277;139457;-59
2022/01/20 11:43:06;;;;;;;15.00;2.80;;;;;;;3.88;63.38;98244.91;221548;1276;138761;-62
2022/01/20 11:48:13;;;;;;;2.10;0.70;;;;;;;3.25;69.08;98313.92;221257;1276;139385;-59
2022/01/20 11:53:19;;;;;;;1.90;0.90;;;;;;;2.37;72.04;98302.74;221359;1275;140334;-62
2022/01/20 11:58:26;;;;;;;3.40;0.90;;;;;;;1.84;68.10;98302.23;221291;1276;139828;-59
2022/01/20 12:03:29;;;;;;;2.40;0.80;;;;;;;1.51;67.53;98293.55;221360;1276;138794;-61
2022/01/20 12:08:36;;;;;;;1.60;0.90;;;;;;;1.35;67.36;98295.70;221015;1276;138546;-60
2022/01/20 12:13:51;;;;;;;1.80;0.90;;;;;;;1.31;67.25;98293.40;221326;1274;139473;-61
2022/01/20 12:18:57;;;;;;;2.20;1.00;;;;;;;1.31;67.11;98295.52;221451;1277;138609;-61
2022/01/20 12:24:00;;;;;;;2.80;1.40;;;;;;;1.29;66.87;98316.54;221290;1275;232553;-60
2022/01/20 12:29:07;;;;;;;5.70;1.30;;;;;;;1.29;66.96;98327.72;221540;1276;139007;-60
2022/01/20 12:34:13;;;;;;;5.00;1.50;;;;;;;1.32;66.89;98324.33;221307;1276;139535;-61
2022/01/20 12:39:22;;;;;;;7.20;2.00;;;;;;;1.38;66.94;98319.36;221215;1276;140132;-62
2022/01/20 12:44:42;;;;;;;6.30;2.10;;;;;;;1.40;66.68;98327.84;221041;1276;139304;-60
2022/01/20 12:49:56;;;;;;;7.80;2.40;;;;;;;1.43;66.78;98328.27;221308;1275;139670;-62
2022/01/20 12:54:59;;;;;;;6.50;2.00;;;;;;;1.45;66.72;98332.02;221488;1276;138831;-62
2022/01/20 13:00:09;;;;;;;9.90;2.70;;;;;;;1.41;66.59;98354.71;221465;1275;138706;-62
2022/01/20 13:05:12;;;;;;;8.10;2.80;;;;;;;1.45;66.76;98360.52;221205;1275;139077;-60
2022/01/20 13:10:30;;;;;;;7.10;3.30;;;;;;;1.53;66.58;98361.83;221261;1276;139965;-62
2022/01/20 13:15:34;;;;;;;6.10;2.70;;;;;;;1.57;66.36;98374.25;221358;1276;138626;-61
2022/01/20 13:20:41;;;;;;;7.70;2.60;;;;;;;1.61;66.12;98382.28;221204;1277;138457;-62
2022/01/20 13:25:44;;;;;;;6.30;2.30;;;;;;;1.61;65.30;98391.02;221467;1276;139377;-61
2022/01/20 13:30:47;;;;;;;8.20;2.50;;;;;;;1.59;64.79;98406.49;221418;1276;138904;-62
2022/01/20 13:35:57;;;;;;;4.30;1.80;;;;;;;1.59;64.30;98422.77;221274;1275;139130;-61
2022/01/20 13:41:14;;;;;;;5.40;1.90;;;;;;;1.57;63.77;98427.05;221424;1276;138741;-62
2022/01/20 13:46:21;;;;;;;5.50;2.00;;;;;;;1.50;63.07;98426.06;221315;1276;138887;-61
2022/01/20 13:51:26;;;;;;;4.90;2.00;;;;;;;1.41;62.45;98439.83;221237;1276;138388;-58
2022/01/20 13:56:30;;;;;;;8.00;2.10;;;;;;;1.29;61.94;98450.23;221280;1275;138600;-62
2022/01/20 14:01:33;;;;;;;11.00;2.60;;;;;;;1.25;61.62;98457.35;221297;1276;138901;-61
2022/01/20 14:06:37;;;;;;;8.50;2.70;;;;;;;1.17;61.54;98472.30;221428;1276;139794;-61
2022/01/20 14:11:41;;;;;;;8.50;2.30;;;;;;;1.03;60.98;98482.88;221183;1276;139158;-61
2022/01/20 14:16:44;;;;;;;4.70;2.20;;;;;;;0.91;60.95;98487.79;221214;1276;140256;-61
2022/01/20 14:21:47;;;;;;;6.30;2.80;;;;;;;0.88;61.05;98515.30;221238;1277;139033;-62
2022/01/20 14:26:54;;;;;;;8.80;2.40;;;;;;;0.85;61.08;98512.63;221413;1276;139451;-60
2022/01/20 14:31:57;;;;;;;7.30;2.10;;;;;;;0.81;61.02;98508.71;221027;1276;138863;-62
2022/01/20 14:37:01;;;;;;;10.80;3.10;;;;;;;0.72;60.76;98506.55;221329;1274;139009;-62
2022/01/20 14:42:05;;;;;;;9.10;2.50;;;;;;;0.73;60.76;98519.64;221300;1277;138953;-60
2022/01/20 14:47:09;;;;;;;8.10;2.50;;;;;;;0.70;60.71;98513.42;221244;1276;140302;-62
2022/01/20 14:52:12;;;;;;;8.90;2.90;;;;;;;0.66;60.51;98509.02;221240;1276;138881;-61
2022/01/20 14:57:15;;;;;;;7.30;2.30;;;;;;;0.62;60.34;98519.42;221190;1276;139360;-61
2022/01/20 15:02:34;;;;;;;6.40;2.60;;;;;;;0.58;60.32;98517.30;221178;1277;138261;-62
2022/01/20 15:07:38;;;;;;;8.50;2.60;;;;;;;0.53;60.05;98521.27;221360;1276;142628;-61
2022/01/20 15:12:43;;;;;;;6.70;2.50;;;;;;;0.49;60.02;98536.75;221588;1275;138322;-61
2022/01/20 15:17:46;;;;;;;9.00;2.80;;;;;;;0.45;60.01;98542.77;221205;1276;139361;-62
2022/01/20 15:22:49;;;;;;;6.60;2.40;;;;;;;0.44;59.82;98544.91;221332;1276;138697;-62
2022/01/20 15:27:53;;;;;;;12.00;2.90;;;;;;;0.47;59.91;98552.50;221345;1275;139128;-60
2022/01/20 15:32:56;;;;;;;11.80;3.50;;;;;;;0.47;59.70;98548.65;221381;1275;138851;-63
2022/01/20 15:37:59;;;;;;;7.70;2.80;;;;;;;0.48;59.62;98558.41;221415;1276;138584;-61
2022/01/20 15:43:02;;;;;;;8.80;2.90;;;;;;;0.49;59.57;98557.18;221338;1276;139330;-62
2022/01/20 15:48:06;;;;;;;8.50;3.00;;;;;;;0.49;59.44;98555.95;221145;1276;139202;-60
2022/01/20 15:53:10;;;;;;;12.50;3.20;;;;;;;0.53;59.47;98551.83;221276;1276;139674;-62
2022/01/20 15:58:13;;;;;;;9.80;3.30;;;;;;;0.57;59.40;98556.23;221295;1277;138975;-62
2022/01/20 16:03:16;;;;;;;10.20;3.60;;;;;;;0.54;59.38;98553.01;221203;1276;139005;-63
2022/01/20 16:08:20;;;;;;;10.30;3.10;;;;;;;0.51;59.16;98550.82;221174;1276;154385;-60
2022/01/20 16:13:23;;;;;;;11.70;3.50;;;;;;;0.49;59.24;98549.48;221356;1275;140622;-64
2022/01/20 16:18:28;;;;;;;11.80;3.00;;;;;;;0.49;59.07;98546.72;221447;1276;139081;-60
2022/01/20 16:23:31;;;;;;;10.60;2.90;;;;;;;0.48;59.18;98561.05;221366;1275;138620;-63
2022/01/20 16:28:34;;;;;;;9.90;3.20;;;;;;;0.42;59.13;98560.50;221200;1276;138707;-64
2022/01/20 16:33:37;;;;;;;12.00;3.80;;;;;;;0.38;59.18;98556.27;221409;1275;138809;-64
2022/01/20 16:38:40;;;;;;;12.80;4.80;;;;;;;0.35;59.34;98559.85;221304;1276;139409;-63
2022/01/20 16:43:43;;;;;;;11.20;3.40;;;;;;;0.37;59.40;98562.23;221266;1276;138727;-62
2022/01/20 16:48:47;;;;;;;12.10;3.60;;;;;;;0.39;59.30;98568.12;221421;1276;138860;-63
2022/01/20 16:53:50;;;;;;;12.70;4.70;;;;;;;0.36;59.12;98571.49;221299;1276;139086;-62
2022/01/20 16:58:55;;;;;;;12.60;4.20;;;;;;;0.36;59.19;98562.77;221343;1276;139078;-61
2022/01/20 17:03:58;;;;;;;13.30;4.40;;;;;;;0.35;58.94;98565.08;221302;1276;138750;-65
2022/01/20 17:09:03;;;;;;;18.50;5.30;;;;;;;0.30;59.10;98563.48;221191;1277;139195;-63
2022/01/20 17:14:06;;;;;;;13.20;5.10;;;;;;;0.24;59.02;98558.75;221502;1274;139553;-59
2022/01/20 17:19:09;;;;;;;19.30;5.40;;;;;;;0.21;59.08;98559.17;221475;1274;140115;-60
2022/01/20 17:24:12;;;;;;;14.20;5.00;;;;;;;0.18;59.18;98563.11;221351;1276;139312;-62
2022/01/20 17:29:15;;;;;;;15.50;5.70;;;;;;;0.18;59.16;98569.39;221380;1277;139911;-61
2022/01/20 17:34:18;;;;;;;18.20;6.70;;;;;;;0.23;59.14;98577.11;221196;1276;138462;-61
2022/01/20 17:39:23;;;;;;;20.20;6.30;;;;;;;0.27;59.20;98577.17;221276;1276;139700;-60
2022/01/20 17:44:27;;;;;;;17.90;6.50;;;;;;;0.27;59.20;98577.17;221293;1276;138891;-61
2022/01/20 17:49:30;;;;;;;19.40;7.10;;;;;;;0.24;59.09;98583.35;221445;1276;139357;-64
2022/01/20 17:54:34;;;;;;;16.00;5.60;;;;;;;0.28;59.40;98580.63;221296;1276;139736;-61
2022/01/20 17:59:38;;;;;;;17.00;5.70;;;;;;;0.29;59.25;98587.21;221139;1276;139185;-63
2022/01/20 18:04:41;;;;;;;15.60;5.40;;;;;;;0.28;59.20;98584.12;221417;1276;140713;-60
2022/01/20 18:09:45;;;;;;;18.60;7.00;;;;;;;0.27;59.32;98588.52;221295;1276;139203;-59
2022/01/20 18:14:48;;;;;;;21.20;6.70;;;;;;;0.29;59.35;98593.17;221391;1275;140958;-56
2022/01/20 18:19:53;;;;;;;18.10;6.50;;;;;;;0.30;59.30;98601.14;221171;1276;139810;-62
2022/01/20 18:24:56;;;;;;;19.50;6.90;;;;;;;0.31;59.34;98603.40;221306;1276;139083;-61
2022/01/20 18:29:59;;;;;;;22.90;6.50;;;;;;;0.26;59.35;98604.38;221296;1275;139360;-60
2022/01/20 18:35:05;;;;;;;24.60;7.80;;;;;;;0.22;59.37;98608.86;221291;1276;139599;-62
2022/01/20 18:40:11;;;;;;;21.00;5.80;;;;;;;0.22;59.52;98607.64;221305;1276;141789;-61
2022/01/20 18:45:16;;;;;;;15.50;5.10;;;;;;;0.25;59.37;98601.83;221309;1276;138885;-60
2022/01/20 18:50:21;;;;;;;20.50;5.40;;;;;;;0.31;59.47;98609.00;221149;1276;138209;-61
2022/01/20 18:55:24;;;;;;;18.30;5.30;;;;;;;0.31;59.35;98612.46;221253;1276;139424;-63
2022/01/20 19:00:27;;;;;;;18.00;5.50;;;;;;;0.33;59.42;98615.55;221520;1276;139379;-62
2022/01/20 19:05:31;;;;;;;22.70;6.40;;;;;;;0.31;59.37;98616.30;221267;1276;138909;-61
2022/01/20 19:10:34;;;;;;;18.00;6.10;;;;;;;0.30;59.37;98619.48;221232;1276;139363;-60
2022/01/20 19:15:37;;;;;;;19.80;6.40;;;;;;;0.29;59.52;98623.52;221369;1276;138625;-62
2022/01/20 19:20:40;;;;;;;18.90;6.20;;;;;;;0.29;59.38;98625.26;221404;1276;138988;-61
2022/01/20 19:25:43;;;;;;;24.80;6.80;;;;;;;0.23;59.49;98636.93;221341;1276;139704;-61
2022/01/20 19:30:46;;;;;;;29.40;7.90;;;;;;;0.19;59.66;98648.71;221326;1276;141659;-64
2022/01/20 19:35:50;;;;;;;21.20;6.90;;;;;;;0.16;59.57;98656.65;221235;1276;139496;-60
2022/01/20 19:40:53;;;;;;;23.10;6.70;;;;;;;0.20;59.75;98666.67;221302;1276;139708;-63
2022/01/20 19:45:56;;;;;;;22.20;7.20;;;;;;;0.19;59.72;98672.79;221228;1276;140528;-61
2022/01/20 19:51:02;;;;;;;27.90;7.40;;;;;;;0.16;59.67;98675.14;221414;1275;139044;-62
2022/01/20 19:56:06;;;;;;;18.20;6.70;;;;;;;0.15;59.69;98670.30;221339;1274;140013;-64
2022/01/20 20:01:09;;;;;;;21.30;7.20;;;;;;;0.18;59.84;98683.63;221729;1274;139477;-63
2022/01/20 20:06:14;;;;;;;22.90;7.30;;;;;;;0.22;59.77;98691.02;221273;1276;138926;-64
2022/01/20 20:11:18;;;;;;;18.60;5.70;;;;;;;0.27;59.83;98693.88;221293;1276;141748;-64
2022/01/20 20:16:25;;;;;;;20.30;6.90;;;;;;;0.27;59.69;98696.66;221346;1277;140045;-60
2022/01/20 20:21:30;;;;;;;21.50;6.50;;;;;;;0.30;59.88;98696.94;221400;1276;140929;-63
2022/01/20 20:26:34;;;;;;;20.00;6.50;;;;;;;0.33;59.78;98694.42;221347;1277;139547;-63
2022/01/20 20:31:37;;;;;;;19.40;6.60;;;;;;;0.34;59.65;98691.42;221450;1276;139943;-64
2022/01/20 20:36:42;;;;;;;18.80;7.10;;;;;;;0.35;59.66;98691.23;221479;1275;139958;-63
2022/01/20 20:41:47;;;;;;;20.40;6.40;;;;;;;0.34;59.54;98687.76;221308;1276;140123;-62
2022/01/20 20:46:53;;;;;;;15.40;5.80;;;;;;;0.31;59.77;98681.56;221246;1277;139927;-61
2022/01/20 20:51:57;;;;;;;18.70;6.50;;;;;;;0.28;59.58;98685.66;221341;1277;140536;-63
2022/01/20 20:57:00;;;;;;;14.70;5.00;;;;;;;0.19;59.79;98687.80;221274;1276;139924;-64
2022/01/20 21:02:04;;;;;;;14.80;5.90;;;;;;;0.17;59.97;98685.41;221289;1276;140695;-62
2022/01/20 21:07:11;;;;;;;14.30;5.60;;;;;;;0.18;59.85;98686.61;221263;1276;140684;-64
2022/01/20 21:12:14;;;;;;;20.80;6.10;;;;;;;0.14;59.80;98684.77;221165;1277;139734;-62
2022/01/20 21:17:19;;;;;;;19.30;6.30;;;;;;;0.13;60.00;98694.23;221324;1276;139038;-63
2022/01/20 21:22:23;;;;;;;24.40;6.60;;;;;;;0.14;59.95;98697.35;221420;1276;140223;-63
2022/01/20 21:27:26;;;;;;;18.80;6.20;;;;;;;0.16;60.03;98708.11;221285;1277;139882;-61
2022/01/20 21:32:30;;;;;;;24.60;6.30;;;;;;;0.15;59.94;98708.48;221344;1276;139752;-61
2022/01/20 21:37:33;;;;;;;21.70;6.20;;;;;;;0.15;60.07;98712.84;221380;1276;139761;-65
2022/01/20 21:42:37;;;;;;;20.00;6.10;;;;;;;0.15;60.18;98714.59;221462;1276;139139;-60
2022/01/20 21:47:42;;;;;;;19.80;5.60;;;;;;;0.13;60.19;98723.55;221193;1277;139433;-63
2022/01/20 21:52:45;;;;;;;19.60;6.70;;;;;;;0.09;60.35;98729.40;221270;1276;141172;-60
2022/01/20 21:57:49;;;;;;;17.80;6.60;;;;;;;0.06;60.22;98740.46;221263;1276;138772;-64
2022/01/20 22:02:53;;;;;;;17.40;5.90;;;;;;;0.09;60.47;98740.20;221239;1276;140726;-61
2022/01/20 22:07:58;;;;;;;18.20;5.20;;;;;;;0.12;60.58;98747.81;221253;1276;139908;-65
2022/01/20 22:13:01;;;;;;;20.30;6.40;;;;;;;0.13;60.34;98753.19;221699;1274;139004;-62
2022/01/20 22:18:04;;;;;;;17.10;6.30;;;;;;;0.13;60.37;98758.06;221385;1275;140064;-62
2022/01/20 22:23:07;;;;;;;16.70;5.10;;;;;;;0.14;60.65;98758.75;221469;1276;140413;-64
2022/01/20 22:28:10;;;;;;;15.00;5.00;;;;;;;0.17;60.61;98759.01;221190;1276;139505;-60
2022/01/20 22:33:14;;;;;;;18.30;5.20;;;;;;;0.21;60.59;98772.35;221314;1276;139799;-63
2022/01/20 22:38:27;;;;;;;20.50;7.20;;;;;;;0.19;60.72;98780.77;220849;1276;139513;-60
2022/01/20 22:43:30;;;;;;;19.10;6.90;;;;;;;0.18;60.68;98788.98;221457;1277;139024;-61
2022/01/20 22:48:36;;;;;;;20.00;7.30;;;;;;;0.19;60.88;98790.55;221363;1276;139742;-62
2022/01/20 22:53:39;;;;;;;17.10;5.60;;;;;;;0.20;60.84;98798.52;221278;1275;138725;-63
2022/01/20 22:58:43;;;;;;;14.40;5.30;;;;;;;0.27;60.90;98807.11;221192;1276;140045;-63
2022/01/20 23:03:46;;;;;;;16.30;5.60;;;;;;;0.31;60.95;98813.13;221471;1275;139258;-59
2022/01/20 23:08:49;;;;;;;16.00;6.00;;;;;;;0.30;60.96;98820.11;221264;1277;139053;-63
2022/01/20 23:13:52;;;;;;;17.50;5.10;;;;;;;0.28;60.96;98819.96;221344;1276;138784;-59
2022/01/20 23:24:18;;;;;;;18.40;5.80;;;;;;;0.27;61.16;98826.11;221331;1276;140398;-61
2022/01/20 23:29:21;;;;;;;13.80;5.70;;;;;;;0.30;61.09;98824.13;221078;1276;138901;-61
2022/01/20 23:34:24;;;;;;;14.20;4.90;;;;;;;0.33;61.31;98830.33;221393;1275;139550;-61
2022/01/20 23:39:28;;;;;;;12.50;5.20;;;;;;;0.31;61.15;98832.66;221342;1275;139227;-60
2022/01/20 23:44:50;;;;;;;12.80;4.80;;;;;;;0.30;61.14;98833.02;221341;1275;139012;-64
2022/01/20 23:49:53;;;;;;;13.00;4.50;;;;;;;0.32;61.09;98839.59;221382;1276;139773;-63
2022/01/20 23:54:56;;;;;;;12.70;4.70;;;;;;;0.29;61.05;98838.98;221527;1276;140526;-61
2022/01/20 23:59:59;;;;;;;14.80;4.80;;;;;;;0.32;61.09;98840.99;221248;1277;141279;-64
